Time;durP1;ratioP1;P1;durP2;ratioP2;P2;SDS_P1;SDS_P2;PMS_P1;PMS_P2;Temp;Humidity;BMP_temperature;BMP_pressure;BME280_temperature;BME280_humidity;BME280_pressure;Samples;Min_cycle;Max_cycle;Signal;HPM_P1;HPM_P2
2024/01/29 00:00:26;;;;;;;8.82;7.95;;;;;;;;;;1033138;28;20026;-75
2024/01/29 00:00:56;;;;;;;12.45;9.90;;;;;;;;;;1033854;28;20058;-75
2024/01/29 00:01:27;;;;;;;6.60;5.55;;;;;;;;;;1033674;28;20033;-75
2024/01/29 00:01:57;;;;;;;5.32;4.80;;;;;;;;;;1031363;28;20089;-75
2024/01/29 00:02:30;;;;;;;4.13;3.13;;;;;;;;;;1031557;28;20469;-76
2024/01/29 00:03:00;;;;;;;16.67;9.13;;;;;;;;;;1031713;28;20022;-75
2024/01/29 00:03:31;;;;;;;7.47;5.93;;;;;;;;;;1031640;28;20030;-75
2024/01/29 00:04:01;;;;;;;4.90;4.57;;;;;;;;;;1031855;28;20030;-75
2024/01/29 00:04:32;;;;;;;5.57;3.10;;;;;;;;;;1034247;28;20389;-75
2024/01/29 00:05:02;;;;;;;3.85;3.53;;;;;;;;;;1033047;28;20113;-75
2024/01/29 00:05:33;;;;;;;6.65;5.53;;;;;;;;;;1033570;28;20021;-75
2024/01/29 00:06:03;;;;;;;6.35;4.10;;;;;;;;;;1031908;28;20038;-75
2024/01/29 00:06:34;;;;;;;7.40;5.85;;;;;;;;;;1031311;28;20026;-75
2024/01/29 00:07:04;;;;;;;7.35;6.65;;;;;;;;;;1032073;28;20073;-75
2024/01/29 00:07:35;;;;;;;12.48;7.53;;;;;;;;;;1031759;28;20075;-75
2024/01/29 00:08:06;;;;;;;7.47;6.18;;;;;;;;;;1032028;28;20034;-75
2024/01/29 00:08:36;;;;;;;5.55;3.15;;;;;;;;;;1031782;28;20026;-76
2024/01/29 00:09:06;;;;;;;11.02;4.32;;;;;;;;;;1032011;28;20061;-75
2024/01/29 00:09:37;;;;;;;4.85;4.20;;;;;;;;;;1034393;28;20022;-76
2024/01/29 00:10:07;;;;;;;9.95;6.82;;;;;;;;;;1031660;28;20046;-75
2024/01/29 00:10:38;;;;;;;11.73;5.15;;;;;;;;;;1029270;28;20500;-75
2024/01/29 00:11:08;;;;;;;9.43;3.80;;;;;;;;;;1028977;28;20026;-76
2024/01/29 00:11:39;;;;;;;7.63;4.03;;;;;;;;;;1027512;28;20039;-75
2024/01/29 00:12:09;;;;;;;4.32;3.95;;;;;;;;;;1031791;28;20037;-76
2024/01/29 00:12:40;;;;;;;6.60;4.72;;;;;;;;;;1031653;28;20029;-75
2024/01/29 00:13:10;;;;;;;13.43;7.10;;;;;;;;;;1033880;28;20037;-76
2024/01/29 00:13:41;;;;;;;9.35;5.45;;;;;;;;;;1033345;28;20028;-75
2024/01/29 00:14:11;;;;;;;21.10;9.05;;;;;;;;;;1033968;28;20505;-75
2024/01/29 00:14:42;;;;;;;5.28;4.78;;;;;;;;;;1034274;28;20033;-76
2024/01/29 00:15:13;;;;;;;9.30;5.22;;;;;;;;;;1032045;28;20498;-75
2024/01/29 00:15:43;;;;;;;16.77;4.38;;;;;;;;;;1032821;28;20018;-76
2024/01/29 00:16:14;;;;;;;6.32;4.15;;;;;;;;;;1033676;28;20029;-75
2024/01/29 00:16:45;;;;;;;4.65;3.38;;;;;;;;;;1029174;28;20018;-76
2024/01/29 00:17:15;;;;;;;10.70;7.03;;;;;;;;;;1029542;28;20031;-75
2024/01/29 00:17:46;;;;;;;4.45;4.07;;;;;;;;;;1031425;28;20030;-76
2024/01/29 00:18:17;;;;;;;5.55;4.47;;;;;;;;;;1029642;28;20019;-76
2024/01/29 00:18:47;;;;;;;21.13;3.15;;;;;;;;;;1029256;28;20031;-76
2024/01/29 00:19:17;;;;;;;5.38;3.00;;;;;;;;;;1029428;28;20058;-76
2024/01/29 00:19:48;;;;;;;12.43;4.63;;;;;;;;;;1029556;28;20109;-75
2024/01/29 00:20:18;;;;;;;5.85;5.35;;;;;;;;;;1033188;28;20083;-75
2024/01/29 00:20:49;;;;;;;3.33;3.03;;;;;;;;;;1033682;28;20060;-75
2024/01/29 00:21:19;;;;;;;14.20;7.60;;;;;;;;;;1034108;28;20112;-76
2024/01/29 00:21:50;;;;;;;5.05;3.78;;;;;;;;;;1032532;28;20030;-76
2024/01/29 00:22:20;;;;;;;7.45;5.28;;;;;;;;;;1033823;28;20030;-76
2024/01/29 00:22:51;;;;;;;7.10;5.68;;;;;;;;;;1031549;28;20026;-75
2024/01/29 00:23:21;;;;;;;8.75;5.97;;;;;;;;;;1032006;28;20485;-75
2024/01/29 00:23:52;;;;;;;3.85;3.50;;;;;;;;;;1033475;28;20032;-75
2024/01/29 00:24:23;;;;;;;5.53;4.32;;;;;;;;;;1030377;28;20521;-76
2024/01/29 00:24:54;;;;;;;22.70;7.07;;;;;;;;;;1031401;28;20014;-75
2024/01/29 00:25:24;;;;;;;6.40;4.22;;;;;;;;;;1031564;28;20022;-76
2024/01/29 00:25:55;;;;;;;6.68;5.68;;;;;;;;;;1031750;28;20022;-76
2024/01/29 00:26:25;;;;;;;5.82;3.88;;;;;;;;;;1029489;28;20470;-76
2024/01/29 00:26:56;;;;;;;21.95;11.55;;;;;;;;;;1026406;28;20225;-75
2024/01/29 00:27:26;;;;;;;5.72;5.30;;;;;;;;;;1025554;28;20026;-75
2024/01/29 00:27:56;;;;;;;8.35;4.32;;;;;;;;;;1025116;28;20059;-75
2024/01/29 00:28:27;;;;;;;10.52;3.30;;;;;;;;;;1027388;28;20023;-75
2024/01/29 00:28:57;;;;;;;8.45;5.90;;;;;;;;;;1031483;28;20499;-75
2024/01/29 00:29:28;;;;;;;6.82;6.03;;;;;;;;;;1027433;28;20348;-75
2024/01/29 00:30:01;;;;;;;6.85;5.68;;;;;;;;;;1031584;28;20418;-76
2024/01/29 00:30:31;;;;;;;23.60;4.88;;;;;;;;;;1031229;28;20054;-75
2024/01/29 00:31:02;;;;;;;2.97;2.38;;;;;;;;;;1032047;28;20026;-75
2024/01/29 00:31:33;;;;;;;5.28;4.88;;;;;;;;;;1033286;28;20030;-76
2024/01/29 00:32:04;;;;;;;8.43;6.20;;;;;;;;;;1033805;28;20045;-76
2024/01/29 00:32:34;;;;;;;11.82;3.88;;;;;;;;;;1031267;28;20026;-75
2024/01/29 00:33:04;;;;;;;5.25;4.28;;;;;;;;;;1031882;28;20112;-75
2024/01/29 00:33:35;;;;;;;7.43;3.95;;;;;;;;;;1035475;28;20069;-75
2024/01/29 00:34:05;;;;;;;44.85;7.35;;;;;;;;;;1031402;28;20033;-75
2024/01/29 00:34:36;;;;;;;7.68;5.53;;;;;;;;;;1029214;28;20426;-75
2024/01/29 00:35:07;;;;;;;16.67;7.85;;;;;;;;;;1028557;28;20023;-75
2024/01/29 00:35:38;;;;;;;6.10;2.75;;;;;;;;;;1030742;28;20033;-75
2024/01/29 00:36:08;;;;;;;12.20;7.57;;;;;;;;;;1034298;28;20093;-75
2024/01/29 00:36:39;;;;;;;8.65;5.05;;;;;;;;;;1031472;28;20030;-75
2024/01/29 00:37:09;;;;;;;16.42;6.85;;;;;;;;;;1031994;28;20097;-75
2024/01/29 00:37:40;;;;;;;6.63;6.13;;;;;;;;;;1031595;28;20033;-76
2024/01/29 00:38:10;;;;;;;4.65;3.63;;;;;;;;;;1031877;28;20026;-76
2024/01/29 00:38:41;;;;;;;15.10;5.07;;;;;;;;;;1031416;28;20025;-76
2024/01/29 00:39:11;;;;;;;9.98;5.57;;;;;;;;;;1031851;28;20026;-76
2024/01/29 00:39:43;;;;;;;7.95;7.15;;;;;;;;;;1031604;28;20490;-76
2024/01/29 00:40:14;;;;;;;5.00;4.55;;;;;;;;;;1032051;28;20540;-76
2024/01/29 00:40:44;;;;;;;27.38;5.70;;;;;;;;;;1033094;28;20164;-76
2024/01/29 00:41:16;;;;;;;12.27;5.18;;;;;;;;;;1029512;28;20018;-76
2024/01/29 00:41:46;;;;;;;4.82;4.18;;;;;;;;;;1028298;28;20027;-76
2024/01/29 00:42:17;;;;;;;4.40;3.20;;;;;;;;;;1029334;28;20028;-75
2024/01/29 00:42:48;;;;;;;10.88;5.18;;;;;;;;;;1027432;28;20022;-75
2024/01/29 00:43:18;;;;;;;8.82;3.58;;;;;;;;;;1031691;28;20022;-75
2024/01/29 00:43:48;;;;;;;13.38;6.90;;;;;;;;;;1031304;28;20022;-76
2024/01/29 00:44:19;;;;;;;4.68;4.28;;;;;;;;;;1031563;28;20101;-76
2024/01/29 00:44:50;;;;;;;6.63;5.35;;;;;;;;;;1030933;28;20103;-75
2024/01/29 00:45:20;;;;;;;7.22;6.22;;;;;;;;;;1030804;28;20106;-76
2024/01/29 00:45:51;;;;;;;8.43;7.68;;;;;;;;;;1030975;28;20477;-75
2024/01/29 00:46:22;;;;;;;6.10;3.92;;;;;;;;;;1029672;28;20498;-75
2024/01/29 00:46:52;;;;;;;5.38;4.85;;;;;;;;;;1031442;28;20422;-75
2024/01/29 00:47:23;;;;;;;8.10;7.22;;;;;;;;;;1031496;28;20026;-75
2024/01/29 00:47:55;;;;;;;5.18;4.13;;;;;;;;;;1031254;28;20026;-76
2024/01/29 00:48:25;;;;;;;6.30;4.28;;;;;;;;;;1031272;28;20057;-76
2024/01/29 00:48:56;;;;;;;7.95;5.47;;;;;;;;;;1032593;28;20464;-75
2024/01/29 00:49:26;;;;;;;8.50;5.28;;;;;;;;;;1034274;28;20400;-75
2024/01/29 00:49:57;;;;;;;5.70;5.28;;;;;;;;;;1032769;28;20117;-75
2024/01/29 00:50:27;;;;;;;3.05;2.75;;;;;;;;;;1031968;28;20029;-75
2024/01/29 00:50:58;;;;;;;4.80;4.32;;;;;;;;;;1031863;28;20018;-75
2024/01/29 00:51:28;;;;;;;4.70;3.65;;;;;;;;;;1031781;28;20509;-76
2024/01/29 00:51:59;;;;;;;16.65;5.90;;;;;;;;;;1031768;28;20076;-76
2024/01/29 00:52:29;;;;;;;30.60;6.50;;;;;;;;;;1030918;28;20025;-76
2024/01/29 00:53:00;;;;;;;6.85;5.40;;;;;;;;;;1031594;28;20482;-76
2024/01/29 00:53:30;;;;;;;5.57;4.63;;;;;;;;;;1031431;28;20057;-76
2024/01/29 00:54:01;;;;;;;7.75;6.57;;;;;;;;;;1031921;28;20029;-75
2024/01/29 00:54:32;;;;;;;8.75;5.35;;;;;;;;;;1030910;28;20616;-75
2024/01/29 00:55:02;;;;;;;5.40;4.05;;;;;;;;;;1031462;28;20022;-76
2024/01/29 00:55:33;;;;;;;19.95;8.38;;;;;;;;;;1031375;28;20030;-76
2024/01/29 00:56:03;;;;;;;7.10;5.85;;;;;;;;;;1031473;28;20029;-76
2024/01/29 00:56:34;;;;;;;22.58;6.65;;;;;;;;;;1030960;28;20026;-76
2024/01/29 00:57:04;;;;;;;2.95;2.80;;;;;;;;;;1031460;28;20026;-76
2024/01/29 00:57:35;;;;;;;25.15;5.35;;;;;;;;;;1031368;28;20086;-76
2024/01/29 00:58:05;;;;;;;6.82;3.83;;;;;;;;;;1031500;28;20038;-76
2024/01/29 00:58:36;;;;;;;7.55;3.95;;;;;;;;;;1031014;28;20494;-76
2024/01/29 00:59:06;;;;;;;5.88;5.43;;;;;;;;;;1029445;28;20023;-76
2024/01/29 00:59:37;;;;;;;13.68;3.95;;;;;;;;;;1029233;28;20505;-76
2024/01/29 01:00:08;;;;;;;5.72;4.63;;;;;;;;;;1029129;28;20467;-76
2024/01/29 01:00:39;;;;;;;6.38;5.82;;;;;;;;;;1028930;28;20064;-76
2024/01/29 01:01:11;;;;;;;13.27;7.97;;;;;;;;;;1031852;28;20037;-76
2024/01/29 01:01:41;;;;;;;5.72;4.45;;;;;;;;;;1031490;28;20367;-76
2024/01/29 01:02:12;;;;;;;0.98;0.98;;;;;;;;;;1031727;28;20030;-75
2024/01/29 01:02:42;;;;;;;4.07;3.72;;;;;;;;;;1031526;28;20386;-75
2024/01/29 01:03:13;;;;;;;8.50;5.45;;;;;;;;;;1031900;28;20033;-76
2024/01/29 01:03:43;;;;;;;5.75;5.25;;;;;;;;;;1033051;28;20120;-76
2024/01/29 01:04:14;;;;;;;4.03;3.72;;;;;;;;;;1033336;28;20382;-76
2024/01/29 01:04:45;;;;;;;21.27;5.75;;;;;;;;;;1033168;28;20057;-76
2024/01/29 01:05:15;;;;;;;8.18;5.93;;;;;;;;;;1033893;28;20026;-76
2024/01/29 01:05:46;;;;;;;7.78;5.68;;;;;;;;;;1031087;28;20026;-76
2024/01/29 01:06:16;;;;;;;5.70;4.07;;;;;;;;;;1032768;28;20018;-76
2024/01/29 01:06:47;;;;;;;18.40;6.38;;;;;;;;;;1030695;28;20048;-76
2024/01/29 01:07:19;;;;;;;7.22;6.38;;;;;;;;;;1031567;28;20093;-76
2024/01/29 01:07:50;;;;;;;13.30;3.45;;;;;;;;;;1030765;28;20368;-76
2024/01/29 01:08:21;;;;;;;5.60;5.07;;;;;;;;;;1031244;28;20026;-75
2024/01/29 01:08:51;;;;;;;3.33;3.03;;;;;;;;;;1030426;28;20030;-76
2024/01/29 01:09:22;;;;;;;7.85;6.60;;;;;;;;;;1029834;28;20109;-76
2024/01/29 01:09:53;;;;;;;7.43;3.70;;;;;;;;;;1029211;28;20022;-76
2024/01/29 01:10:23;;;;;;;4.75;4.30;;;;;;;;;;1024331;28;20109;-75
2024/01/29 01:10:54;;;;;;;5.85;5.32;;;;;;;;;;1026158;28;20065;-76
2024/01/29 01:11:24;;;;;;;15.18;7.20;;;;;;;;;;1025895;28;20537;-76
2024/01/29 01:11:56;;;;;;;3.72;3.13;;;;;;;;;;1027136;28;20569;-76
2024/01/29 01:12:26;;;;;;;4.00;3.65;;;;;;;;;;1029928;28;20153;-76
2024/01/29 01:12:57;;;;;;;5.65;2.25;;;;;;;;;;1033928;28;20040;-76
2024/01/29 01:13:27;;;;;;;4.57;4.13;;;;;;;;;;1032365;28;20030;-76
2024/01/29 01:13:58;;;;;;;6.30;5.50;;;;;;;;;;1033258;28;20470;-76
2024/01/29 01:14:28;;;;;;;9.98;6.22;;;;;;;;;;1033876;28;20026;-75
2024/01/29 01:14:59;;;;;;;5.60;3.85;;;;;;;;;;1031345;28;20560;-75
2024/01/29 01:15:29;;;;;;;6.85;1.42;;;;;;;;;;1030279;28;20026;-76
2024/01/29 01:15:59;;;;;;;13.38;7.53;;;;;;;;;;1031376;28;20030;-76
2024/01/29 01:16:30;;;;;;;3.70;3.40;;;;;;;;;;1031130;28;20042;-76
2024/01/29 01:17:00;;;;;;;6.00;3.63;;;;;;;;;;1031718;28;20027;-76
2024/01/29 01:17:31;;;;;;;4.35;2.80;;;;;;;;;;1033101;28;20398;-76
2024/01/29 01:18:03;;;;;;;4.80;4.22;;;;;;;;;;1034154;28;20025;-76
2024/01/29 01:18:33;;;;;;;6.35;3.13;;;;;;;;;;1029285;28;20483;-75
2024/01/29 01:19:04;;;;;;;1.58;1.48;;;;;;;;;;1028908;28;20092;-76
2024/01/29 01:19:34;;;;;;;12.35;6.53;;;;;;;;;;1027100;28;20029;-76
2024/01/29 01:20:06;;;;;;;7.07;6.55;;;;;;;;;;1027522;28;20022;-76
2024/01/29 01:20:36;;;;;;;6.82;6.43;;;;;;;;;;1031078;28;20093;-76
2024/01/29 01:21:07;;;;;;;5.78;5.18;;;;;;;;;;1026661;28;20019;-75
2024/01/29 01:21:37;;;;;;;3.35;3.10;;;;;;;;;;1027653;28;20034;-75
2024/01/29 01:22:08;;;;;;;13.98;4.97;;;;;;;;;;1027949;28;20033;-76
2024/01/29 01:22:41;;;;;;;6.72;5.05;;;;;;;;;;1029322;28;20042;-76
2024/01/29 01:23:11;;;;;;;7.53;6.10;;;;;;;;;;1032413;23;20567;-22
2024/01/29 01:23:41;;;;;;;4.35;3.97;;;;;;;;;;1032104;28;20055;-22
2024/01/29 01:24:12;;;;;;;11.25;3.60;;;;;;;;;;1032192;28;20430;-23
2024/01/29 01:24:42;;;;;;;5.25;4.85;;;;;;;;;;1032570;28;20054;-21
2024/01/29 01:25:13;;;;;;;5.82;4.57;;;;;;;;;;1030959;28;20402;-21
2024/01/29 01:25:43;;;;;;;4.63;4.30;;;;;;;;;;1031318;28;20026;-22
2024/01/29 01:26:14;;;;;;;9.95;7.68;;;;;;;;;;1030572;28;20109;-20
2024/01/29 01:26:44;;;;;;;5.90;5.45;;;;;;;;;;1029371;28;20030;-22
2024/01/29 01:27:16;;;;;;;3.70;3.40;;;;;;;;;;1030954;28;20026;-20
2024/01/29 01:27:47;;;;;;;10.00;5.53;;;;;;;;;;1030903;28;20117;-20
2024/01/29 01:28:17;;;;;;;12.10;5.95;;;;;;;;;;1030651;28;20023;-21
2024/01/29 01:28:47;;;;;;;8.32;5.07;;;;;;;;;;1030418;28;20635;-21
2024/01/29 01:29:18;;;;;;;3.97;3.45;;;;;;;;;;1030410;28;20034;-20
2024/01/29 01:29:48;;;;;;;3.30;3.10;;;;;;;;;;1030368;28;20044;-21
2024/01/29 01:30:20;;;;;;;5.47;4.97;;;;;;;;;;1030506;28;20108;-22
2024/01/29 01:30:51;;;;;;;9.38;4.90;;;;;;;;;;1030880;28;20034;-21
2024/01/29 01:31:21;;;;;;;5.00;4.55;;;;;;;;;;1030329;28;20073;-20
2024/01/29 01:31:52;;;;;;;15.50;5.20;;;;;;;;;;1030139;28;20117;-22
2024/01/29 01:32:22;;;;;;;5.75;5.20;;;;;;;;;;1029996;28;20034;-23
2024/01/29 01:32:52;;;;;;;12.68;4.72;;;;;;;;;;1031367;28;20045;-22
2024/01/29 01:33:23;;;;;;;5.43;5.05;;;;;;;;;;1030841;28;20492;-23
2024/01/29 01:33:53;;;;;;;10.55;6.07;;;;;;;;;;1031120;28;20482;-23
2024/01/29 01:34:24;;;;;;;12.27;4.47;;;;;;;;;;1030222;28;21166;-21
2024/01/29 01:34:54;;;;;;;5.53;4.30;;;;;;;;;;1031165;28;20061;-20
2024/01/29 01:35:25;;;;;;;6.25;5.35;;;;;;;;;;1030839;28;20498;-22
2024/01/29 01:35:55;;;;;;;7.75;3.60;;;;;;;;;;1031361;28;20034;-22
2024/01/29 01:36:26;;;;;;;18.77;5.97;;;;;;;;;;1030039;28;20022;-23
2024/01/29 01:36:56;;;;;;;0.98;0.98;;;;;;;;;;1030884;28;20676;-22
2024/01/29 01:37:27;;;;;;;9.73;4.72;;;;;;;;;;1030153;28;20536;-23
2024/01/29 01:37:57;;;;;;;9.38;6.68;;;;;;;;;;1030628;28;20077;-22
2024/01/29 01:38:27;;;;;;;3.88;3.58;;;;;;;;;;1030057;28;20112;-20
2024/01/29 01:38:58;;;;;;;15.40;5.20;;;;;;;;;;1028358;28;20045;-21
2024/01/29 01:39:29;;;;;;;4.82;4.32;;;;;;;;;;1029462;28;20146;-22
2024/01/29 01:39:59;;;;;;;4.30;2.58;;;;;;;;;;1028627;28;20030;-22
2024/01/29 01:40:29;;;;;;;8.23;5.95;;;;;;;;;;1028525;28;20027;-19
2024/01/29 01:41:00;;;;;;;4.20;3.88;;;;;;;;;;1028817;28;20557;-22
2024/01/29 01:41:30;;;;;;;2.63;2.42;;;;;;;;;;1028445;28;20030;-22
2024/01/29 01:42:01;;;;;;;5.35;4.57;;;;;;;;;;1028863;28;20026;-22
2024/01/29 01:42:31;;;;;;;6.53;5.97;;;;;;;;;;1028965;28;20112;-20
2024/01/29 01:43:18;;;;;;;7.50;6.95;;;;;;;;;;1029614;28;20137;-22
2024/01/29 01:43:48;;;;;;;8.02;4.72;;;;;;;;;;1029927;28;20049;-22
2024/01/29 01:44:19;;;;;;;3.38;3.08;;;;;;;;;;1029441;28;20072;-22
2024/01/29 01:44:50;;;;;;;9.95;5.68;;;;;;;;;;1029497;28;20029;-19
2024/01/29 01:45:20;;;;;;;6.95;4.55;;;;;;;;;;1030166;28;20022;-20
2024/01/29 01:46:01;;;;;;;11.10;4.97;;;;;;;;;;1030122;28;20033;-21
2024/01/29 01:46:31;;;;;;;3.50;3.28;;;;;;;;;;1029602;28;20059;-20
2024/01/29 01:47:02;;;;;;;4.43;2.50;;;;;;;;;;1033631;28;20582;-20
2024/01/29 01:47:32;;;;;;;4.32;2.83;;;;;;;;;;1033077;28;20026;-22
2024/01/29 01:48:03;;;;;;;11.77;7.93;;;;;;;;;;1034206;28;20068;-22
2024/01/29 01:48:34;;;;;;;3.53;3.25;;;;;;;;;;1034262;28;20057;-22
2024/01/29 01:49:05;;;;;;;7.97;4.82;;;;;;;;;;1030721;28;20034;-21
2024/01/29 01:49:35;;;;;;;8.73;5.25;;;;;;;;;;1031186;28;20030;-21
2024/01/29 01:50:07;;;;;;;5.80;4.57;;;;;;;;;;1030432;28;20120;-20
2024/01/29 01:50:38;;;;;;;11.07;5.50;;;;;;;;;;1029914;28;20053;-19
2024/01/29 01:51:08;;;;;;;14.48;8.20;;;;;;;;;;1030345;28;20069;-23
2024/01/29 01:51:39;;;;;;;8.85;4.93;;;;;;;;;;1030946;28;20400;-22
2024/01/29 01:52:10;;;;;;;10.13;5.85;;;;;;;;;;1030559;28;20502;-21
2024/01/29 01:52:40;;;;;;;3.75;2.78;;;;;;;;;;1030475;28;20030;-23
2024/01/29 01:53:11;;;;;;;9.02;6.03;;;;;;;;;;1030380;28;20113;-20
2024/01/29 01:53:41;;;;;;;3.15;2.95;;;;;;;;;;1030906;28;20392;-20
2024/01/29 01:54:13;;;;;;;19.55;8.95;;;;;;;;;;1030118;28;20029;-21
2024/01/29 01:54:44;;;;;;;2.95;2.75;;;;;;;;;;1030710;28;20033;-21
2024/01/29 01:55:15;;;;;;;9.93;5.57;;;;;;;;;;1030708;28;20065;-19
2024/01/29 01:55:45;;;;;;;2.95;2.75;;;;;;;;;;1030736;28;20393;-20
2024/01/29 01:56:16;;;;;;;13.52;5.38;;;;;;;;;;1030451;28;20069;-21
2024/01/29 01:56:47;;;;;;;2.60;1.90;;;;;;;;;;1031042;28;20393;-21
2024/01/29 01:57:17;;;;;;;4.57;4.13;;;;;;;;;;1030354;28;20113;-21
2024/01/29 01:57:48;;;;;;;8.25;4.55;;;;;;;;;;1030938;28;20026;-20
2024/01/29 01:58:18;;;;;;;5.60;4.25;;;;;;;;;;1029854;28;20026;-19
2024/01/29 01:58:49;;;;;;;5.35;4.30;;;;;;;;;;1030081;28;20030;-21
2024/01/29 01:59:20;;;;;;;5.88;5.32;;;;;;;;;;1030601;28;20125;-21
2024/01/29 01:59:51;;;;;;;19.45;3.88;;;;;;;;;;1031001;28;20019;-21
2024/01/29 02:00:22;;;;;;;26.90;7.85;;;;;;;;;;1029319;28;20124;-21
2024/01/29 02:00:52;;;;;;;13.43;4.32;;;;;;;;;;1030027;28;20034;-21
2024/01/29 02:01:23;;;;;;;7.95;5.63;;;;;;;;;;1030308;28;20535;-21
2024/01/29 02:01:53;;;;;;;5.40;5.00;;;;;;;;;;1031159;28;20053;-21
2024/01/29 02:02:24;;;;;;;6.38;5.68;;;;;;;;;;1030191;28;20037;-22
2024/01/29 02:02:54;;;;;;;8.05;4.70;;;;;;;;;;1031289;28;20045;-21
2024/01/29 02:03:28;;;;;;;3.58;3.28;;;;;;;;;;1030362;28;20015;-21
2024/01/29 02:03:58;;;;;;;7.03;5.07;;;;;;;;;;1031076;28;20030;-22
2024/01/29 02:04:29;;;;;;;9.98;6.72;;;;;;;;;;1030001;28;20482;-20
2024/01/29 02:04:59;;;;;;;9.73;5.20;;;;;;;;;;1031044;28;20374;-20
2024/01/29 02:05:30;;;;;;;5.47;4.78;;;;;;;;;;1030725;28;20033;-19
2024/01/29 02:06:00;;;;;;;6.28;4.45;;;;;;;;;;1030915;28;20053;-22
2024/01/29 02:06:31;;;;;;;5.75;2.92;;;;;;;;;;1030545;28;20398;-22
2024/01/29 02:07:02;;;;;;;2.53;2.03;;;;;;;;;;1031194;28;20041;-21
2024/01/29 02:07:32;;;;;;;7.20;6.50;;;;;;;;;;1030863;28;20026;-22
2024/01/29 02:08:03;;;;;;;6.45;5.85;;;;;;;;;;1031195;28;20470;-22
2024/01/29 02:08:34;;;;;;;4.90;4.50;;;;;;;;;;1029272;28;20052;-21
2024/01/29 02:09:05;;;;;;;2.70;2.50;;;;;;;;;;1030881;28;20109;-20
2024/01/29 02:09:36;;;;;;;10.73;5.55;;;;;;;;;;1030897;28;20027;-22
2024/01/29 02:10:07;;;;;;;4.22;3.83;;;;;;;;;;1031200;28;20490;-20
2024/01/29 02:10:37;;;;;;;5.50;5.07;;;;;;;;;;1030912;28;20441;-22
2024/01/29 02:11:08;;;;;;;9.02;4.30;;;;;;;;;;1030025;28;20029;-21
2024/01/29 02:11:39;;;;;;;8.52;5.95;;;;;;;;;;1030712;28;20030;-20
2024/01/29 02:12:10;;;;;;;7.00;4.55;;;;;;;;;;1029066;28;20029;-22
2024/01/29 02:12:40;;;;;;;3.45;3.13;;;;;;;;;;1029741;28;20034;-19
2024/01/29 02:13:14;;;;;;;3.92;2.35;;;;;;;;;;1029057;28;20420;-21
2024/01/29 02:13:44;;;;;;;2.97;2.63;;;;;;;;;;1028279;28;20584;-23
2024/01/29 02:14:15;;;;;;;4.70;4.30;;;;;;;;;;1030019;28;20026;-23
2024/01/29 02:14:45;;;;;;;6.70;5.72;;;;;;;;;;1029274;28;20125;-21
2024/01/29 02:15:16;;;;;;;19.35;5.50;;;;;;;;;;1029171;28;20037;-21
2024/01/29 02:15:46;;;;;;;6.07;3.88;;;;;;;;;;1029541;28;20053;-19
2024/01/29 02:16:16;;;;;;;4.80;3.03;;;;;;;;;;1030248;28;20027;-19
2024/01/29 02:16:47;;;;;;;7.47;4.38;;;;;;;;;;1030867;28;20034;-21
2024/01/29 02:17:17;;;;;;;6.50;3.17;;;;;;;;;;1030736;28;20033;-21
2024/01/29 02:17:48;;;;;;;5.78;5.13;;;;;;;;;;1030547;28;20409;-21
2024/01/29 02:18:18;;;;;;;13.27;4.75;;;;;;;;;;1029548;28;20113;-20
2024/01/29 02:18:49;;;;;;;8.48;5.00;;;;;;;;;;1028952;28;20053;-22
2024/01/29 02:19:20;;;;;;;2.78;2.17;;;;;;;;;;1030360;28;20038;-21
2024/01/29 02:19:50;;;;;;;16.48;6.15;;;;;;;;;;1030981;28;20045;-20
2024/01/29 02:20:21;;;;;;;14.60;2.40;;;;;;;;;;1030559;28;20022;-20
2024/01/29 02:20:52;;;;;;;2.70;2.47;;;;;;;;;;1030621;28;20030;-21
2024/01/29 02:21:22;;;;;;;7.00;4.60;;;;;;;;;;1029461;28;20033;-20
2024/01/29 02:21:53;;;;;;;6.68;3.75;;;;;;;;;;1031164;28;20109;-21
2024/01/29 02:22:24;;;;;;;5.07;4.63;;;;;;;;;;1029852;28;20037;-20
2024/01/29 02:22:54;;;;;;;2.17;1.92;;;;;;;;;;1030692;28;20037;-21
2024/01/29 02:23:25;;;;;;;4.43;2.95;;;;;;;;;;1029963;28;20113;-19
2024/01/29 02:23:56;;;;;;;7.63;4.85;;;;;;;;;;1025390;28;20664;-22
2024/01/29 02:24:26;;;;;;;10.52;3.95;;;;;;;;;;1025453;28;20035;-22
2024/01/29 02:24:57;;;;;;;6.63;3.25;;;;;;;;;;1026594;28;20315;-21
2024/01/29 02:25:27;;;;;;;3.47;3.17;;;;;;;;;;1026868;28;20105;-22
2024/01/29 02:25:58;;;;;;;8.13;4.68;;;;;;;;;;1031330;28;20518;-21
2024/01/29 02:26:28;;;;;;;16.15;5.90;;;;;;;;;;1030068;28;20044;-21
2024/01/29 02:26:58;;;;;;;6.72;5.20;;;;;;;;;;1031135;28;20415;-19
2024/01/29 02:27:29;;;;;;;5.00;3.88;;;;;;;;;;1031053;28;20469;-20
2024/01/29 02:27:59;;;;;;;13.35;2.78;;;;;;;;;;1031188;28;20505;-22
2024/01/29 02:28:30;;;;;;;4.88;3.78;;;;;;;;;;1030490;28;20053;-21
2024/01/29 02:29:00;;;;;;;7.93;5.05;;;;;;;;;;1030604;28;20037;-20
2024/01/29 02:29:30;;;;;;;4.35;4.03;;;;;;;;;;1031400;28;20060;-19
2024/01/29 02:30:01;;;;;;;10.95;7.75;;;;;;;;;;1031257;28;20482;-22
2024/01/29 02:30:31;;;;;;;3.33;2.85;;;;;;;;;;1030983;28;20026;-20
2024/01/29 02:31:02;;;;;;;5.22;4.80;;;;;;;;;;1031591;28;20096;-22
2024/01/29 02:31:33;;;;;;;6.20;4.82;;;;;;;;;;1029714;28;20029;-20
2024/01/29 02:32:04;;;;;;;5.75;4.68;;;;;;;;;;1029889;28;20026;-22
2024/01/29 02:32:35;;;;;;;4.38;4.00;;;;;;;;;;1028725;28;20553;-20
2024/01/29 02:33:05;;;;;;;25.50;6.90;;;;;;;;;;1029631;28;20026;-21
2024/01/29 02:33:36;;;;;;;20.48;5.50;;;;;;;;;;1035450;28;20076;-20
2024/01/29 02:34:06;;;;;;;8.60;4.22;;;;;;;;;;1035393;28;20500;-21
2024/01/29 02:34:37;;;;;;;11.60;5.30;;;;;;;;;;1030345;28;20026;-22
2024/01/29 02:35:08;;;;;;;10.93;4.45;;;;;;;;;;1031911;28;20474;-22
2024/01/29 02:35:38;;;;;;;5.88;4.28;;;;;;;;;;1031427;28;20023;-22
2024/01/29 02:36:08;;;;;;;6.00;3.95;;;;;;;;;;1031526;28;20030;-21
2024/01/29 02:36:39;;;;;;;6.78;4.18;;;;;;;;;;1031351;28;20037;-19
2024/01/29 02:37:09;;;;;;;20.27;6.65;;;;;;;;;;1031931;28;20057;-22
2024/01/29 02:37:40;;;;;;;12.93;8.15;;;;;;;;;;1031812;28;20116;-20
2024/01/29 02:38:11;;;;;;;7.57;4.20;;;;;;;;;;1031662;28;20481;-20
2024/01/29 02:38:42;;;;;;;5.30;4.60;;;;;;;;;;1030222;28;20041;-23
2024/01/29 02:39:13;;;;;;;5.85;4.45;;;;;;;;;;1031869;28;20026;-21
2024/01/29 02:39:43;;;;;;;7.20;5.32;;;;;;;;;;1031517;28;20022;-21
2024/01/29 02:40:13;;;;;;;3.28;2.83;;;;;;;;;;1032034;28;20026;-19
2024/01/29 02:40:44;;;;;;;5.50;5.00;;;;;;;;;;1031371;28;20050;-21
2024/01/29 02:41:15;;;;;;;14.52;7.68;;;;;;;;;;1031669;28;20038;-21
2024/01/29 02:41:45;;;;;;;4.07;3.72;;;;;;;;;;1031204;28;20045;-22
2024/01/29 02:42:18;;;;;;;26.35;7.20;;;;;;;;;;1031752;28;20027;-19
2024/01/29 02:42:49;;;;;;;9.32;3.60;;;;;;;;;;1031508;28;20018;-20
2024/01/29 02:43:19;;;;;;;5.70;4.00;;;;;;;;;;1031403;28;20030;-22
2024/01/29 02:43:50;;;;;;;12.15;6.03;;;;;;;;;;1031086;28;20117;-20
2024/01/29 02:44:20;;;;;;;3.10;2.80;;;;;;;;;;1030320;28;20494;-22
2024/01/29 02:44:51;;;;;;;3.45;2.15;;;;;;;;;;1030252;28;20026;-20
2024/01/29 02:45:21;;;;;;;5.68;5.00;;;;;;;;;;1030886;28;20053;-21
2024/01/29 02:45:52;;;;;;;7.35;4.50;;;;;;;;;;1029827;28;20478;-21
2024/01/29 02:46:22;;;;;;;3.45;3.25;;;;;;;;;;1031518;28;20382;-21
2024/01/29 02:46:53;;;;;;;6.97;3.55;;;;;;;;;;1031086;28;20037;-22
2024/01/29 02:47:23;;;;;;;9.55;5.15;;;;;;;;;;1030047;28;20081;-21
2024/01/29 02:47:54;;;;;;;14.13;6.85;;;;;;;;;;1030959;28;20030;-21
2024/01/29 02:48:24;;;;;;;7.97;4.63;;;;;;;;;;1029966;28;20118;-20
2024/01/29 02:48:55;;;;;;;6.38;5.72;;;;;;;;;;1028839;28;20026;-21
2024/01/29 02:49:25;;;;;;;25.90;3.28;;;;;;;;;;1030087;28;20050;-20
2024/01/29 02:49:56;;;;;;;9.05;4.13;;;;;;;;;;1030964;28;20030;-21
2024/01/29 02:50:26;;;;;;;6.43;3.85;;;;;;;;;;1027388;28;20541;-21
2024/01/29 02:50:57;;;;;;;2.75;2.55;;;;;;;;;;1030592;28;20031;-21
2024/01/29 02:51:27;;;;;;;6.88;5.70;;;;;;;;;;1030903;28;20030;-21
2024/01/29 02:51:58;;;;;;;3.28;3.00;;;;;;;;;;1028796;28;20479;-21
2024/01/29 02:52:29;;;;;;;2.85;2.28;;;;;;;;;;1030291;28;20048;-22
2024/01/29 02:52:59;;;;;;;17.27;6.97;;;;;;;;;;1030951;28;20496;-20
2024/01/29 02:53:29;;;;;;;3.90;3.60;;;;;;;;;;1030331;28;20030;-23
2024/01/29 02:54:00;;;;;;;14.60;6.55;;;;;;;;;;1030366;28;20030;-23
2024/01/29 02:54:31;;;;;;;1.60;1.52;;;;;;;;;;1030266;28;20482;-23
2024/01/29 02:55:02;;;;;;;13.38;5.68;;;;;;;;;;1030127;28;20026;-20
2024/01/29 02:55:32;;;;;;;5.65;4.63;;;;;;;;;;1030538;28;20111;-21
2024/01/29 02:56:03;;;;;;;6.20;5.05;;;;;;;;;;1030893;28;20506;-22
2024/01/29 02:56:33;;;;;;;13.25;6.53;;;;;;;;;;1030771;28;20487;-21
2024/01/29 02:57:04;;;;;;;9.45;5.32;;;;;;;;;;1030436;28;20344;-19
2024/01/29 02:57:34;;;;;;;16.65;6.93;;;;;;;;;;1030631;28;20500;-22
2024/01/29 02:58:05;;;;;;;11.68;5.18;;;;;;;;;;1030420;28;20077;-20
2024/01/29 02:58:35;;;;;;;5.55;4.22;;;;;;;;;;1030011;28;20081;-21
2024/01/29 02:59:06;;;;;;;4.40;3.42;;;;;;;;;;1028768;28;20077;-21
2024/01/29 02:59:36;;;;;;;5.80;2.72;;;;;;;;;;1030727;28;20026;-21
2024/01/29 03:00:07;;;;;;;6.32;5.28;;;;;;;;;;1030783;28;20070;-21
2024/01/29 03:00:38;;;;;;;5.60;4.88;;;;;;;;;;1030406;28;20026;-22
2024/01/29 03:01:09;;;;;;;9.05;4.53;;;;;;;;;;1029071;28;20026;-20
2024/01/29 03:01:39;;;;;;;6.35;4.20;;;;;;;;;;1030312;28;20058;-20
2024/01/29 03:02:10;;;;;;;2.42;1.85;;;;;;;;;;1030969;28;20101;-21
2024/01/29 03:02:40;;;;;;;4.57;4.18;;;;;;;;;;1028588;28;20525;-20
2024/01/29 03:03:11;;;;;;;14.70;4.78;;;;;;;;;;1030798;28;20022;-21
2024/01/29 03:03:41;;;;;;;17.30;4.85;;;;;;;;;;1030753;28;20383;-23